sensor_id;sensor_type;location;lat;lon;timestamp;P1;P2;P0
77777;PMS5003;66966;-34.746;138.604;2023-05-25T00:00:03;1;1;
77777;PMS5003;66966;-34.746;138.604;2023-05-25T00:02:29;3;2;
77777;PMS5003;66966;-34.746;138.604;2023-05-25T00:04:54;3;2;
77777;PMS5003;66966;-34.746;138.604;2023-05-25T00:07:20;2;2;
77777;PMS5003;66966;-34.746;138.604;2023-05-25T00:09:45;1;1;
77777;PMS5003;66966;-34.746;138.604;2023-05-25T00:12:11;1;1;
77777;PMS5003;66966;-34.746;138.604;2023-05-25T00:14:37;3;3;
77777;PMS5003;66966;-34.746;138.604;2023-05-25T00:17:02;2;1;
77777;PMS5003;66966;-34.746;138.604;2023-05-25T00:19:28;0;0;
77777;PMS5003;66966;-34.746;138.604;2023-05-25T00:21:53;3;3;
77777;PMS5003;66966;-34.746;138.604;2023-05-25T00:24:19;3;3;
77777;PMS5003;66966;-34.746;138.604;2023-05-25T00:26:45;4;3;
77777;PMS5003;66966;-34.746;138.604;2023-05-25T00:29:10;1;1;
77777;PMS5003;66966;-34.746;138.604;2023-05-25T00:31:36;0;0;
77777;PMS5003;66966;-34.746;138.604;2023-05-25T00:34:01;4;2;
77777;PMS5003;66966;-34.746;138.604;2023-05-25T00:36:27;2;2;
77777;PMS5003;66966;-34.746;138.604;2023-05-25T00:38:53;3;2;
77777;PMS5003;66966;-34.746;138.604;2023-05-25T00:41:18;4;4;
77777;PMS5003;66966;-34.746;138.604;2023-05-25T00:43:44;4;3;
77777;PMS5003;66966;-34.746;138.604;2023-05-25T00:46:09;2;1;
77777;PMS5003;66966;-34.746;138.604;2023-05-25T00:48:34;4;3;
77777;PMS5003;66966;-34.746;138.604;2023-05-25T00:51:00;6;6;
77777;PMS5003;66966;-34.746;138.604;2023-05-25T00:53:25;10;9;
77777;PMS5003;66966;-34.746;138.604;2023-05-25T00:55:52;7;7;
77777;PMS5003;66966;-34.746;138.604;2023-05-25T00:58:18;8;7;
77777;PMS5003;66966;-34.746;138.604;2023-05-25T01:00:42;6;6;
77777;PMS5003;66966;-34.746;138.604;2023-05-25T01:03:11;8;7;
77777;PMS5003;66966;-34.746;138.604;2023-05-25T01:05:33;8;7;
77777;PMS5003;66966;-34.746;138.604;2023-05-25T01:07:59;10;9;
77777;PMS5003;66966;-34.746;138.604;2023-05-25T01:10:25;10;10;
77777;PMS5003;66966;-34.746;138.604;2023-05-25T01:12:51;8;7;
77777;PMS5003;66966;-34.746;138.604;2023-05-25T01:15:16;5;4;
77777;PMS5003;66966;-34.746;138.604;2023-05-25T01:17:42;3;3;
77777;PMS5003;66966;-34.746;138.604;2023-05-25T01:20:07;3;3;
77777;PMS5003;66966;-34.746;138.604;2023-05-25T01:22:34;2;2;
77777;PMS5003;66966;-34.746;138.604;2023-05-25T01:25:00;2;1;
77777;PMS5003;66966;-34.746;138.604;2023-05-25T01:27:25;1;1;
77777;PMS5003;66966;-34.746;138.604;2023-05-25T01:29:50;4;3;
77777;PMS5003;66966;-34.746;138.604;2023-05-25T01:32:16;3;3;
77777;PMS5003;66966;-34.746;138.604;2023-05-25T01:34:42;3;3;
77777;PMS5003;66966;-34.746;138.604;2023-05-25T01:37:06;2;2;
77777;PMS5003;66966;-34.746;138.604;2023-05-25T01:39:32;3;3;
77777;PMS5003;66966;-34.746;138.604;2023-05-25T01:41:58;4;3;
77777;PMS5003;66966;-34.746;138.604;2023-05-25T01:44:23;2;2;
77777;PMS5003;66966;-34.746;138.604;2023-05-25T01:46:50;1;1;
77777;PMS5003;66966;-34.746;138.604;2023-05-25T01:49:18;2;2;
77777;PMS5003;66966;-34.746;138.604;2023-05-25T01:51:42;2;2;
77777;PMS5003;66966;-34.746;138.604;2023-05-25T01:54:07;1;1;
77777;PMS5003;66966;-34.746;138.604;2023-05-25T01:56:31;3;3;
77777;PMS5003;66966;-34.746;138.604;2023-05-25T01:58:57;3;2;
77777;PMS5003;66966;-34.746;138.604;2023-05-25T02:01:23;4;2;
77777;PMS5003;66966;-34.746;138.604;2023-05-25T02:03:49;1;1;
77777;PMS5003;66966;-34.746;138.604;2023-05-25T02:06:14;5;4;
77777;PMS5003;66966;-34.746;138.604;2023-05-25T02:08:39;5;2;
77777;PMS5003;66966;-34.746;138.604;2023-05-25T02:11:05;3;2;
77777;PMS5003;66966;-34.746;138.604;2023-05-25T02:13:30;3;1;
77777;PMS5003;66966;-34.746;138.604;2023-05-25T02:15:56;1;1;
77777;PMS5003;66966;-34.746;138.604;2023-05-25T02:18:22;3;1;
77777;PMS5003;66966;-34.746;138.604;2023-05-25T02:20:47;2;2;
77777;PMS5003;66966;-34.746;138.604;2023-05-25T02:23:13;2;1;
77777;PMS5003;66966;-34.746;138.604;2023-05-25T02:25:38;4;2;
77777;PMS5003;66966;-34.746;138.604;2023-05-25T02:28:04;2;1;
77777;PMS5003;66966;-34.746;138.604;2023-05-25T02:30:30;3;2;
77777;PMS5003;66966;-34.746;138.604;2023-05-25T02:32:55;2;2;
77777;PMS5003;66966;-34.746;138.604;2023-05-25T02:35:21;2;2;
77777;PMS5003;66966;-34.746;138.604;2023-05-25T02:37:46;0;0;
77777;PMS5003;66966;-34.746;138.604;2023-05-25T02:40:12;1;1;
77777;PMS5003;66966;-34.746;138.604;2023-05-25T02:42:38;2;1;
77777;PMS5003;66966;-34.746;138.604;2023-05-25T02:45:03;2;0;
77777;PMS5003;66966;-34.746;138.604;2023-05-25T02:47:29;2;1;
77777;PMS5003;66966;-34.746;138.604;2023-05-25T02:49:54;2;1;
77777;PMS5003;66966;-34.746;138.604;2023-05-25T02:52:20;3;1;
77777;PMS5003;66966;-34.746;138.604;2023-05-25T02:54:46;10;6;
77777;PMS5003;66966;-34.746;138.604;2023-05-25T02:57:11;6;6;
77777;PMS5003;66966;-34.746;138.604;2023-05-25T02:59:36;5;4;
77777;PMS5003;66966;-34.746;138.604;2023-05-25T03:02:02;5;3;
77777;PMS5003;66966;-34.746;138.604;2023-05-25T03:04:28;3;2;
77777;PMS5003;66966;-34.746;138.604;2023-05-25T03:06:53;5;3;
77777;PMS5003;66966;-34.746;138.604;2023-05-25T03:09:19;1;0;
77777;PMS5003;66966;-34.746;138.604;2023-05-25T03:11:45;2;1;
77777;PMS5003;66966;-34.746;138.604;2023-05-25T03:14:10;2;2;
77777;PMS5003;66966;-34.746;138.604;2023-05-25T03:16:36;4;3;
77777;PMS5003;66966;-34.746;138.604;2023-05-25T03:19:01;3;3;
77777;PMS5003;66966;-34.746;138.604;2023-05-25T03:21:27;1;0;
77777;PMS5003;66966;-34.746;138.604;2023-05-25T03:23:53;1;1;
77777;PMS5003;66966;-34.746;138.604;2023-05-25T03:26:18;3;2;
77777;PMS5003;66966;-34.746;138.604;2023-05-25T03:28:44;3;1;
77777;PMS5003;66966;-34.746;138.604;2023-05-25T03:31:09;2;1;
77777;PMS5003;66966;-34.746;138.604;2023-05-25T03:33:35;4;3;
77777;PMS5003;66966;-34.746;138.604;2023-05-25T03:36:00;1;1;
77777;PMS5003;66966;-34.746;138.604;2023-05-25T03:38:26;4;3;
77777;PMS5003;66966;-34.746;138.604;2023-05-25T03:40:52;2;1;
77777;PMS5003;66966;-34.746;138.604;2023-05-25T03:43:17;3;2;
77777;PMS5003;66966;-34.746;138.604;2023-05-25T03:45:43;3;1;
77777;PMS5003;66966;-34.746;138.604;2023-05-25T03:48:08;0;0;
77777;PMS5003;66966;-34.746;138.604;2023-05-25T03:50:34;0;0;
77777;PMS5003;66966;-34.746;138.604;2023-05-25T03:53:00;2;1;
77777;PMS5003;66966;-34.746;138.604;2023-05-25T03:55:25;3;0;
77777;PMS5003;66966;-34.746;138.604;2023-05-25T03:57:50;2;1;
77777;PMS5003;66966;-34.746;138.604;2023-05-25T04:00:16;2;1;
77777;PMS5003;66966;-34.746;138.604;2023-05-25T04:02:42;3;1;
77777;PMS5003;66966;-34.746;138.604;2023-05-25T04:05:08;2;2;
77777;PMS5003;66966;-34.746;138.604;2023-05-25T04:07:33;1;1;
77777;PMS5003;66966;-34.746;138.604;2023-05-25T04:09:59;1;1;
77777;PMS5003;66966;-34.746;138.604;2023-05-25T04:12:24;2;1;
77777;PMS5003;66966;-34.746;138.604;2023-05-25T04:14:50;2;1;
77777;PMS5003;66966;-34.746;138.604;2023-05-25T04:17:16;0;0;
77777;PMS5003;66966;-34.746;138.604;2023-05-25T04:19:41;2;2;
77777;PMS5003;66966;-34.746;138.604;2023-05-25T04:22:06;2;1;
77777;PMS5003;66966;-34.746;138.604;2023-05-25T04:24:32;1;1;
77777;PMS5003;66966;-34.746;138.604;2023-05-25T04:26:57;3;1;
77777;PMS5003;66966;-34.746;138.604;2023-05-25T04:29:24;4;2;
77777;PMS5003;66966;-34.746;138.604;2023-05-25T04:31:48;2;1;
77777;PMS5003;66966;-34.746;138.604;2023-05-25T04:34:14;4;3;
77777;PMS5003;66966;-34.746;138.604;2023-05-25T04:36:40;5;3;
77777;PMS5003;66966;-34.746;138.604;2023-05-25T04:39:05;2;1;
77777;PMS5003;66966;-34.746;138.604;2023-05-25T04:41:31;4;1;
77777;PMS5003;66966;-34.746;138.604;2023-05-25T04:43:56;3;3;
77777;PMS5003;66966;-34.746;138.604;2023-05-25T04:46:22;6;3;
77777;PMS5003;66966;-34.746;138.604;2023-05-25T04:48:47;3;2;
77777;PMS5003;66966;-34.746;138.604;2023-05-25T04:51:13;3;3;
77777;PMS5003;66966;-34.746;138.604;2023-05-25T04:53:38;2;0;
77777;PMS5003;66966;-34.746;138.604;2023-05-25T04:56:04;1;1;
77777;PMS5003;66966;-34.746;138.604;2023-05-25T04:58:29;5;3;
77777;PMS5003;66966;-34.746;138.604;2023-05-25T05:00:55;4;2;
77777;PMS5003;66966;-34.746;138.604;2023-05-25T05:03:20;3;2;
77777;PMS5003;66966;-34.746;138.604;2023-05-25T05:05:46;7;5;
77777;PMS5003;66966;-34.746;138.604;2023-05-25T05:08:11;3;0;
77777;PMS5003;66966;-34.746;138.604;2023-05-25T05:10:37;3;0;
77777;PMS5003;66966;-34.746;138.604;2023-05-25T05:13:02;3;2;
77777;PMS5003;66966;-34.746;138.604;2023-05-25T05:15:28;2;2;
77777;PMS5003;66966;-34.746;138.604;2023-05-25T05:17:54;2;2;
77777;PMS5003;66966;-34.746;138.604;2023-05-25T05:20:19;3;2;
77777;PMS5003;66966;-34.746;138.604;2023-05-25T05:22:45;3;1;
77777;PMS5003;66966;-34.746;138.604;2023-05-25T05:25:10;2;1;
77777;PMS5003;66966;-34.746;138.604;2023-05-25T05:27:35;7;2;
77777;PMS5003;66966;-34.746;138.604;2023-05-25T05:30:01;3;1;
77777;PMS5003;66966;-34.746;138.604;2023-05-25T05:32:26;2;1;
77777;PMS5003;66966;-34.746;138.604;2023-05-25T05:34:52;2;1;
77777;PMS5003;66966;-34.746;138.604;2023-05-25T05:37:17;1;0;
77777;PMS5003;66966;-34.746;138.604;2023-05-25T05:39:43;0;0;
77777;PMS5003;66966;-34.746;138.604;2023-05-25T05:42:08;1;1;
77777;PMS5003;66966;-34.746;138.604;2023-05-25T05:44:34;1;1;
77777;PMS5003;66966;-34.746;138.604;2023-05-25T05:46:59;3;2;
77777;PMS5003;66966;-34.746;138.604;2023-05-25T05:49:25;0;0;
77777;PMS5003;66966;-34.746;138.604;2023-05-25T05:51:50;1;1;
77777;PMS5003;66966;-34.746;138.604;2023-05-25T05:54:16;0;0;
77777;PMS5003;66966;-34.746;138.604;2023-05-25T05:56:41;1;0;
77777;PMS5003;66966;-34.746;138.604;2023-05-25T05:59:07;0;0;
77777;PMS5003;66966;-34.746;138.604;2023-05-25T06:01:32;2;1;
77777;PMS5003;66966;-34.746;138.604;2023-05-25T06:03:58;2;1;
77777;PMS5003;66966;-34.746;138.604;2023-05-25T06:06:24;1;1;
77777;PMS5003;66966;-34.746;138.604;2023-05-25T06:08:49;3;2;
77777;PMS5003;66966;-34.746;138.604;2023-05-25T06:11:15;1;0;
77777;PMS5003;66966;-34.746;138.604;2023-05-25T06:13:41;4;2;
77777;PMS5003;66966;-34.746;138.604;2023-05-25T06:16:06;0;0;
77777;PMS5003;66966;-34.746;138.604;2023-05-25T06:18:32;1;0;
77777;PMS5003;66966;-34.746;138.604;2023-05-25T06:20:59;1;0;
77777;PMS5003;66966;-34.746;138.604;2023-05-25T06:23:23;0;0;
77777;PMS5003;66966;-34.746;138.604;2023-05-25T06:25:50;1;1;
77777;PMS5003;66966;-34.746;138.604;2023-05-25T06:28:14;3;1;
77777;PMS5003;66966;-34.746;138.604;2023-05-25T06:30:40;1;0;
77777;PMS5003;66966;-34.746;138.604;2023-05-25T06:33:05;1;0;
77777;PMS5003;66966;-34.746;138.604;2023-05-25T06:35:31;2;1;
77777;PMS5003;66966;-34.746;138.604;2023-05-25T06:37:57;2;2;
77777;PMS5003;66966;-34.746;138.604;2023-05-25T06:40:22;5;1;
77777;PMS5003;66966;-34.746;138.604;2023-05-25T06:42:48;3;2;
77777;PMS5003;66966;-34.746;138.604;2023-05-25T06:45:14;3;1;
77777;PMS5003;66966;-34.746;138.604;2023-05-25T06:47:39;4;2;
77777;PMS5003;66966;-34.746;138.604;2023-05-25T06:50:05;1;1;
77777;PMS5003;66966;-34.746;138.604;2023-05-25T06:52:31;1;1;
77777;PMS5003;66966;-34.746;138.604;2023-05-25T06:54:56;4;3;
77777;PMS5003;66966;-34.746;138.604;2023-05-25T06:57:22;3;2;
77777;PMS5003;66966;-34.746;138.604;2023-05-25T06:59:47;4;1;
77777;PMS5003;66966;-34.746;138.604;2023-05-25T07:02:13;2;1;
77777;PMS5003;66966;-34.746;138.604;2023-05-25T07:04:38;2;2;
77777;PMS5003;66966;-34.746;138.604;2023-05-25T07:07:05;5;2;
77777;PMS5003;66966;-34.746;138.604;2023-05-25T07:09:30;3;3;
77777;PMS5003;66966;-34.746;138.604;2023-05-25T07:11:55;1;1;
77777;PMS5003;66966;-34.746;138.604;2023-05-25T07:14:21;2;1;
77777;PMS5003;66966;-34.746;138.604;2023-05-25T07:16:48;2;1;
77777;PMS5003;66966;-34.746;138.604;2023-05-25T07:19:13;2;2;
77777;PMS5003;66966;-34.746;138.604;2023-05-25T07:21:38;1;1;
77777;PMS5003;66966;-34.746;138.604;2023-05-25T07:24:04;2;2;
77777;PMS5003;66966;-34.746;138.604;2023-05-25T07:26:30;2;1;
77777;PMS5003;66966;-34.746;138.604;2023-05-25T07:28:56;0;0;
77777;PMS5003;66966;-34.746;138.604;2023-05-25T07:31:21;4;1;
77777;PMS5003;66966;-34.746;138.604;2023-05-25T07:33:47;1;1;
77777;PMS5003;66966;-34.746;138.604;2023-05-25T07:36:12;3;2;
77777;PMS5003;66966;-34.746;138.604;2023-05-25T07:38:38;1;1;
77777;PMS5003;66966;-34.746;138.604;2023-05-25T07:41:04;0;0;
77777;PMS5003;66966;-34.746;138.604;2023-05-25T07:43:29;1;1;
77777;PMS5003;66966;-34.746;138.604;2023-05-25T07:45:55;0;0;
77777;PMS5003;66966;-34.746;138.604;2023-05-25T07:48:21;1;1;
77777;PMS5003;66966;-34.746;138.604;2023-05-25T07:50:47;1;1;
77777;PMS5003;66966;-34.746;138.604;2023-05-25T07:53:13;2;1;
77777;PMS5003;66966;-34.746;138.604;2023-05-25T07:55:38;1;1;
77777;PMS5003;66966;-34.746;138.604;2023-05-25T07:58:04;2;2;
77777;PMS5003;66966;-34.746;138.604;2023-05-25T08:00:29;1;0;
77777;PMS5003;66966;-34.746;138.604;2023-05-25T08:02:55;1;1;
77777;PMS5003;66966;-34.746;138.604;2023-05-25T08:05:21;1;0;
77777;PMS5003;66966;-34.746;138.604;2023-05-25T08:07:46;1;1;
77777;PMS5003;66966;-34.746;138.604;2023-05-25T08:10:12;1;0;
77777;PMS5003;66966;-34.746;138.604;2023-05-25T08:12:38;0;0;
77777;PMS5003;66966;-34.746;138.604;2023-05-25T08:15:04;0;0;
77777;PMS5003;66966;-34.746;138.604;2023-05-25T08:17:30;0;0;
77777;PMS5003;66966;-34.746;138.604;2023-05-25T08:19:55;6;1;
77777;PMS5003;66966;-34.746;138.604;2023-05-25T08:22:21;1;1;
77777;PMS5003;66966;-34.746;138.604;2023-05-25T08:24:46;3;2;
77777;PMS5003;66966;-34.746;138.604;2023-05-25T08:27:12;1;1;
77777;PMS5003;66966;-34.746;138.604;2023-05-25T08:29:38;2;1;
77777;PMS5003;66966;-34.746;138.604;2023-05-25T08:32:04;0;0;
77777;PMS5003;66966;-34.746;138.604;2023-05-25T08:34:29;1;1;
77777;PMS5003;66966;-34.746;138.604;2023-05-25T08:36:56;1;0;
77777;PMS5003;66966;-34.746;138.604;2023-05-25T08:39:21;2;2;
77777;PMS5003;66966;-34.746;138.604;2023-05-25T08:41:47;1;0;
77777;PMS5003;66966;-34.746;138.604;2023-05-25T08:44:12;2;1;
77777;PMS5003;66966;-34.746;138.604;2023-05-25T08:46:38;2;2;
77777;PMS5003;66966;-34.746;138.604;2023-05-25T08:49:07;5;1;
77777;PMS5003;66966;-34.746;138.604;2023-05-25T08:51:30;1;1;
77777;PMS5003;66966;-34.746;138.604;2023-05-25T08:53:55;4;4;
77777;PMS5003;66966;-34.746;138.604;2023-05-25T08:56:21;2;2;
77777;PMS5003;66966;-34.746;138.604;2023-05-25T08:58:48;1;1;
77777;PMS5003;66966;-34.746;138.604;2023-05-25T09:01:13;1;1;
77777;PMS5003;66966;-34.746;138.604;2023-05-25T09:03:38;1;1;
77777;PMS5003;66966;-34.746;138.604;2023-05-25T09:06:04;3;1;
77777;PMS5003;66966;-34.746;138.604;2023-05-25T09:08:29;2;2;
77777;PMS5003;66966;-34.746;138.604;2023-05-25T09:10:55;0;0;
77777;PMS5003;66966;-34.746;138.604;2023-05-25T09:13:20;1;0;
77777;PMS5003;66966;-34.746;138.604;2023-05-25T09:15:46;2;1;
77777;PMS5003;66966;-34.746;138.604;2023-05-25T09:18:12;1;1;
77777;PMS5003;66966;-34.746;138.604;2023-05-25T09:20:37;0;0;
77777;PMS5003;66966;-34.746;138.604;2023-05-25T09:23:04;1;1;
77777;PMS5003;66966;-34.746;138.604;2023-05-25T09:25:29;0;0;
77777;PMS5003;66966;-34.746;138.604;2023-05-25T09:27:55;1;1;
77777;PMS5003;66966;-34.746;138.604;2023-05-25T09:30:20;2;2;
77777;PMS5003;66966;-34.746;138.604;2023-05-25T09:32:46;3;3;
77777;PMS5003;66966;-34.746;138.604;2023-05-25T09:35:12;3;2;
77777;PMS5003;66966;-34.746;138.604;2023-05-25T09:37:37;3;2;
77777;PMS5003;66966;-34.746;138.604;2023-05-25T09:40:03;3;2;
77777;PMS5003;66966;-34.746;138.604;2023-05-25T09:42:29;1;1;
77777;PMS5003;66966;-34.746;138.604;2023-05-25T09:44:54;1;1;
77777;PMS5003;66966;-34.746;138.604;2023-05-25T09:47:20;1;1;
77777;PMS5003;66966;-34.746;138.604;2023-05-25T09:49:45;1;1;
77777;PMS5003;66966;-34.746;138.604;2023-05-25T09:52:11;3;1;
77777;PMS5003;66966;-34.746;138.604;2023-05-25T09:54:37;4;3;
77777;PMS5003;66966;-34.746;138.604;2023-05-25T09:57:03;0;0;
77777;PMS5003;66966;-34.746;138.604;2023-05-25T09:59:28;2;1;
77777;PMS5003;66966;-34.746;138.604;2023-05-25T10:01:54;1;1;
77777;PMS5003;66966;-34.746;138.604;2023-05-25T10:04:20;2;1;
77777;PMS5003;66966;-34.746;138.604;2023-05-25T10:06:46;1;0;
77777;PMS5003;66966;-34.746;138.604;2023-05-25T10:09:11;2;1;
77777;PMS5003;66966;-34.746;138.604;2023-05-25T10:11:37;1;1;
77777;PMS5003;66966;-34.746;138.604;2023-05-25T10:14:04;2;1;
77777;PMS5003;66966;-34.746;138.604;2023-05-25T10:16:28;2;1;
77777;PMS5003;66966;-34.746;138.604;2023-05-25T10:18:56;2;1;
77777;PMS5003;66966;-34.746;138.604;2023-05-25T10:21:20;1;1;
77777;PMS5003;66966;-34.746;138.604;2023-05-25T10:23:47;3;2;
77777;PMS5003;66966;-34.746;138.604;2023-05-25T10:26:11;2;1;
77777;PMS5003;66966;-34.746;138.604;2023-05-25T10:28:38;1;1;
77777;PMS5003;66966;-34.746;138.604;2023-05-25T10:31:03;1;1;
77777;PMS5003;66966;-34.746;138.604;2023-05-25T10:33:28;2;1;
77777;PMS5003;66966;-34.746;138.604;2023-05-25T10:35:54;1;1;
77777;PMS5003;66966;-34.746;138.604;2023-05-25T10:38:20;3;3;
77777;PMS5003;66966;-34.746;138.604;2023-05-25T10:40:46;1;1;
77777;PMS5003;66966;-34.746;138.604;2023-05-25T10:43:11;1;1;
77777;PMS5003;66966;-34.746;138.604;2023-05-25T10:45:37;3;1;
77777;PMS5003;66966;-34.746;138.604;2023-05-25T10:48:03;1;0;
77777;PMS5003;66966;-34.746;138.604;2023-05-25T10:50:31;1;1;
77777;PMS5003;66966;-34.746;138.604;2023-05-25T10:52:58;3;1;
77777;PMS5003;66966;-34.746;138.604;2023-05-25T10:55:20;0;0;
77777;PMS5003;66966;-34.746;138.604;2023-05-25T10:57:46;0;0;
77777;PMS5003;66966;-34.746;138.604;2023-05-25T11:00:12;0;0;
77777;PMS5003;66966;-34.746;138.604;2023-05-25T11:07:29;2;1;
77777;PMS5003;66966;-34.746;138.604;2023-05-25T11:09:56;0;0;
77777;PMS5003;66966;-34.746;138.604;2023-05-25T11:12:20;0;0;
77777;PMS5003;66966;-34.746;138.604;2023-05-25T11:17:12;0;0;
77777;PMS5003;66966;-34.746;138.604;2023-05-25T11:19:39;1;1;
77777;PMS5003;66966;-34.746;138.604;2023-05-25T11:24:29;1;1;
77777;PMS5003;66966;-34.746;138.604;2023-05-25T11:26:56;0;0;
77777;PMS5003;66966;-34.746;138.604;2023-05-25T11:29:20;1;1;
77777;PMS5003;66966;-34.746;138.604;2023-05-25T11:31:48;2;1;
77777;PMS5003;66966;-34.746;138.604;2023-05-25T11:34:12;1;1;
77777;PMS5003;66966;-34.746;138.604;2023-05-25T11:36:37;1;1;
77777;PMS5003;66966;-34.746;138.604;2023-05-25T11:39:04;0;0;
77777;PMS5003;66966;-34.746;138.604;2023-05-25T11:41:29;2;1;
77777;PMS5003;66966;-34.746;138.604;2023-05-25T11:43:55;2;1;
77777;PMS5003;66966;-34.746;138.604;2023-05-25T11:46:21;3;1;
77777;PMS5003;66966;-34.746;138.604;2023-05-25T11:48:49;1;1;
77777;PMS5003;66966;-34.746;138.604;2023-05-25T11:51:12;3;2;
77777;PMS5003;66966;-34.746;138.604;2023-05-25T11:56:03;3;3;
77777;PMS5003;66966;-34.746;138.604;2023-05-25T11:58:32;3;3;
77777;PMS5003;66966;-34.746;138.604;2023-05-25T12:00:55;3;2;
77777;PMS5003;66966;-34.746;138.604;2023-05-25T12:05:46;7;6;
77777;PMS5003;66966;-34.746;138.604;2023-05-25T12:08:12;4;4;
77777;PMS5003;66966;-34.746;138.604;2023-05-25T12:13:04;2;2;
77777;PMS5003;66966;-34.746;138.604;2023-05-25T12:15:30;0;0;
77777;PMS5003;66966;-34.746;138.604;2023-05-25T12:17:55;0;0;
77777;PMS5003;66966;-34.746;138.604;2023-05-25T12:20:21;2;1;
77777;PMS5003;66966;-34.746;138.604;2023-05-25T12:22:47;3;2;
77777;PMS5003;66966;-34.746;138.604;2023-05-25T12:25:13;2;1;
77777;PMS5003;66966;-34.746;138.604;2023-05-25T12:27:39;1;1;
77777;PMS5003;66966;-34.746;138.604;2023-05-25T12:30:05;3;1;
77777;PMS5003;66966;-34.746;138.604;2023-05-25T12:32:30;1;1;
77777;PMS5003;66966;-34.746;138.604;2023-05-25T12:35:01;5;2;
77777;PMS5003;66966;-34.746;138.604;2023-05-25T12:37:21;2;1;
77777;PMS5003;66966;-34.746;138.604;2023-05-25T12:39:47;3;1;
77777;PMS5003;66966;-34.746;138.604;2023-05-25T12:42:13;2;1;
77777;PMS5003;66966;-34.746;138.604;2023-05-25T12:44:39;3;1;
77777;PMS5003;66966;-34.746;138.604;2023-05-25T12:47:10;1;1;
77777;PMS5003;66966;-34.746;138.604;2023-05-25T12:49:30;4;1;
77777;PMS5003;66966;-34.746;138.604;2023-05-25T12:51:57;4;2;
77777;PMS5003;66966;-34.746;138.604;2023-05-25T12:56:53;1;1;
77777;PMS5003;66966;-34.746;138.604;2023-05-25T12:59:14;1;1;
77777;PMS5003;66966;-34.746;138.604;2023-05-25T13:01:38;2;1;
77777;PMS5003;66966;-34.746;138.604;2023-05-25T13:04:04;1;1;
77777;PMS5003;66966;-34.746;138.604;2023-05-25T13:06:32;1;1;
77777;PMS5003;66966;-34.746;138.604;2023-05-25T13:08:56;1;1;
77777;PMS5003;66966;-34.746;138.604;2023-05-25T13:11:21;3;3;
77777;PMS5003;66966;-34.746;138.604;2023-05-25T13:13:47;2;1;
77777;PMS5003;66966;-34.746;138.604;2023-05-25T13:16:13;3;2;
77777;PMS5003;66966;-34.746;138.604;2023-05-25T13:18:39;4;2;
77777;PMS5003;66966;-34.746;138.604;2023-05-25T13:21:04;3;2;
77777;PMS5003;66966;-34.746;138.604;2023-05-25T13:23:30;2;2;
77777;PMS5003;66966;-34.746;138.604;2023-05-25T13:25:56;4;3;
77777;PMS5003;66966;-34.746;138.604;2023-05-25T13:28:22;5;4;
77777;PMS5003;66966;-34.746;138.604;2023-05-25T13:30:48;3;3;
77777;PMS5003;66966;-34.746;138.604;2023-05-25T13:33:13;5;4;
77777;PMS5003;66966;-34.746;138.604;2023-05-25T13:35:39;10;7;
77777;PMS5003;66966;-34.746;138.604;2023-05-25T13:38:05;4;3;
77777;PMS5003;66966;-34.746;138.604;2023-05-25T13:40:31;3;2;
77777;PMS5003;66966;-34.746;138.604;2023-05-25T13:42:57;4;3;
77777;PMS5003;66966;-34.746;138.604;2023-05-25T13:45:22;4;3;
77777;PMS5003;66966;-34.746;138.604;2023-05-25T13:47:48;4;4;
77777;PMS5003;66966;-34.746;138.604;2023-05-25T13:50:14;6;6;
77777;PMS5003;66966;-34.746;138.604;2023-05-25T13:52:40;4;4;
77777;PMS5003;66966;-34.746;138.604;2023-05-25T13:55:06;4;4;
77777;PMS5003;66966;-34.746;138.604;2023-05-25T13:57:31;4;4;
77777;PMS5003;66966;-34.746;138.604;2023-05-25T13:59:57;6;5;
77777;PMS5003;66966;-34.746;138.604;2023-05-25T14:02:23;7;7;
77777;PMS5003;66966;-34.746;138.604;2023-05-25T14:04:49;9;6;
77777;PMS5003;66966;-34.746;138.604;2023-05-25T14:07:15;9;9;
77777;PMS5003;66966;-34.746;138.604;2023-05-25T14:09:40;10;9;
77777;PMS5003;66966;-34.746;138.604;2023-05-25T14:12:06;11;10;
77777;PMS5003;66966;-34.746;138.604;2023-05-25T14:14:32;11;9;
77777;PMS5003;66966;-34.746;138.604;2023-05-25T14:16:58;11;10;
77777;PMS5003;66966;-34.746;138.604;2023-05-25T14:19:23;12;10;
77777;PMS5003;66966;-34.746;138.604;2023-05-25T14:21:49;12;12;
77777;PMS5003;66966;-34.746;138.604;2023-05-25T14:24:14;13;12;
77777;PMS5003;66966;-34.746;138.604;2023-05-25T14:26:40;11;11;
77777;PMS5003;66966;-34.746;138.604;2023-05-25T14:29:06;10;10;
77777;PMS5003;66966;-34.746;138.604;2023-05-25T14:31:32;12;10;
77777;PMS5003;66966;-34.746;138.604;2023-05-25T14:33:58;13;12;
77777;PMS5003;66966;-34.746;138.604;2023-05-25T14:36:24;19;16;
77777;PMS5003;66966;-34.746;138.604;2023-05-25T14:38:49;21;18;
77777;PMS5003;66966;-34.746;138.604;2023-05-25T14:41:15;19;17;
77777;PMS5003;66966;-34.746;138.604;2023-05-25T14:43:40;20;17;
77777;PMS5003;66966;-34.746;138.604;2023-05-25T14:46:05;19;18;
77777;PMS5003;66966;-34.746;138.604;2023-05-25T14:48:31;14;12;
77777;PMS5003;66966;-34.746;138.604;2023-05-25T14:50:56;7;6;
77777;PMS5003;66966;-34.746;138.604;2023-05-25T14:53:23;8;6;
77777;PMS5003;66966;-34.746;138.604;2023-05-25T14:55:48;5;5;
77777;PMS5003;66966;-34.746;138.604;2023-05-25T14:58:14;4;4;
77777;PMS5003;66966;-34.746;138.604;2023-05-25T15:00:40;4;4;
77777;PMS5003;66966;-34.746;138.604;2023-05-25T15:03:06;4;3;
77777;PMS5003;66966;-34.746;138.604;2023-05-25T15:05:32;4;3;
77777;PMS5003;66966;-34.746;138.604;2023-05-25T15:07:57;4;3;
77777;PMS5003;66966;-34.746;138.604;2023-05-25T15:10:23;5;4;
77777;PMS5003;66966;-34.746;138.604;2023-05-25T15:12:49;13;12;
77777;PMS5003;66966;-34.746;138.604;2023-05-25T15:15:14;18;18;
77777;PMS5003;66966;-34.746;138.604;2023-05-25T15:17:40;16;13;
77777;PMS5003;66966;-34.746;138.604;2023-05-25T15:20:06;9;9;
77777;PMS5003;66966;-34.746;138.604;2023-05-25T15:22:31;11;9;
77777;PMS5003;66966;-34.746;138.604;2023-05-25T15:24:57;8;8;
77777;PMS5003;66966;-34.746;138.604;2023-05-25T15:27:23;8;7;
77777;PMS5003;66966;-34.746;138.604;2023-05-25T15:29:49;6;6;
77777;PMS5003;66966;-34.746;138.604;2023-05-25T15:32:15;5;4;
77777;PMS5003;66966;-34.746;138.604;2023-05-25T15:34:41;6;4;
77777;PMS5003;66966;-34.746;138.604;2023-05-25T15:37:06;7;6;
77777;PMS5003;66966;-34.746;138.604;2023-05-25T15:39:32;4;4;
77777;PMS5003;66966;-34.746;138.604;2023-05-25T15:41:58;4;4;
77777;PMS5003;66966;-34.746;138.604;2023-05-25T15:44:24;8;7;
77777;PMS5003;66966;-34.746;138.604;2023-05-25T15:46:50;6;6;
77777;PMS5003;66966;-34.746;138.604;2023-05-25T15:49:16;7;7;
77777;PMS5003;66966;-34.746;138.604;2023-05-25T15:51:41;5;4;
77777;PMS5003;66966;-34.746;138.604;2023-05-25T15:54:08;5;5;
77777;PMS5003;66966;-34.746;138.604;2023-05-25T15:56:33;4;4;
77777;PMS5003;66966;-34.746;138.604;2023-05-25T15:58:58;5;5;
77777;PMS5003;66966;-34.746;138.604;2023-05-25T16:01:24;3;2;
77777;PMS5003;66966;-34.746;138.604;2023-05-25T16:03:50;2;1;
77777;PMS5003;66966;-34.746;138.604;2023-05-25T16:06:16;3;2;